sensor_id;sensor_type;location;lat;lon;timestamp;pressure;altitude;pressure_sealevel;temperature;humidity
59531;BME280;45349;48.692;8.186;2023-02-28T00:01:23;99294.41;;;-2.13;60.54
59531;BME280;45349;48.692;8.186;2023-02-28T00:03:50;99289.50;;;-2.19;61.04
59531;BME280;45349;48.692;8.186;2023-02-28T00:06:16;99295.13;;;-2.35;62.51
59531;BME280;45349;48.692;8.186;2023-02-28T00:08:43;99299.47;;;-2.37;61.81
59531;BME280;45349;48.692;8.186;2023-02-28T00:11:13;99289.31;;;-2.15;60.58
59531;BME280;45349;48.692;8.186;2023-02-28T00:13:43;99294.44;;;-2.15;60.78
59531;BME280;45349;48.692;8.186;2023-02-28T00:16:13;99289.59;;;-2.23;62.36
59531;BME280;45349;48.692;8.186;2023-02-28T00:18:41;99296.41;;;-2.23;62.23
59531;BME280;45349;48.692;8.186;2023-02-28T00:21:08;99299.28;;;-2.32;62.14
59531;BME280;45349;48.692;8.186;2023-02-28T00:23:35;99295.91;;;-2.33;63.08
59531;BME280;45349;48.692;8.186;2023-02-28T00:26:02;99296.91;;;-2.37;62.52
59531;BME280;45349;48.692;8.186;2023-02-28T00:28:29;99294.59;;;-2.45;62.66
59531;BME280;45349;48.692;8.186;2023-02-28T00:30:59;99291.03;;;-2.41;62.42
59531;BME280;45349;48.692;8.186;2023-02-28T00:33:26;99285.94;;;-2.41;63.16
59531;BME280;45349;48.692;8.186;2023-02-28T00:36:02;99299.16;;;-2.28;61.89
59531;BME280;45349;48.692;8.186;2023-02-28T00:38:29;99287.38;;;-2.33;63.02
59531;BME280;45349;48.692;8.186;2023-02-28T00:40:55;99292.81;;;-2.43;63.90
59531;BME280;45349;48.692;8.186;2023-02-28T00:43:24;99290.63;;;-2.54;63.83
59531;BME280;45349;48.692;8.186;2023-02-28T00:45:50;99289.38;;;-2.67;63.68
59531;BME280;45349;48.692;8.186;2023-02-28T00:48:20;99284.31;;;-2.69;64.59
59531;BME280;45349;48.692;8.186;2023-02-28T00:50:48;99288.31;;;-2.61;64.19
59531;BME280;45349;48.692;8.186;2023-02-28T00:53:14;99286.63;;;-2.61;63.33
59531;BME280;45349;48.692;8.186;2023-02-28T00:55:41;99286.81;;;-2.42;63.37
59531;BME280;45349;48.692;8.186;2023-02-28T00:58:08;99288.50;;;-2.41;62.96
59531;BME280;45349;48.692;8.186;2023-02-28T01:00:34;99291.22;;;-2.45;63.01
59531;BME280;45349;48.692;8.186;2023-02-28T01:03:01;99289.75;;;-2.53;64.66
59531;BME280;45349;48.692;8.186;2023-02-28T01:05:29;99288.75;;;-2.48;63.41
59531;BME280;45349;48.692;8.186;2023-02-28T01:07:55;99286.38;;;-2.28;62.20
59531;BME280;45349;48.692;8.186;2023-02-28T01:10:22;99288.97;;;-2.29;62.87
59531;BME280;45349;48.692;8.186;2023-02-28T01:12:49;99285.16;;;-2.43;63.31
59531;BME280;45349;48.692;8.186;2023-02-28T01:15:15;99284.16;;;-2.39;62.97
59531;BME280;45349;48.692;8.186;2023-02-28T01:17:44;99285.47;;;-2.27;62.51
59531;BME280;45349;48.692;8.186;2023-02-28T01:20:11;99278.41;;;-2.20;62.06
59531;BME280;45349;48.692;8.186;2023-02-28T01:22:39;99280.56;;;-2.33;63.01
59531;BME280;45349;48.692;8.186;2023-02-28T01:25:07;99279.25;;;-2.19;62.29
59531;BME280;45349;48.692;8.186;2023-02-28T01:27:37;99286.38;;;-2.28;62.69
59531;BME280;45349;48.692;8.186;2023-02-28T01:30:05;99290.38;;;-2.20;62.68
59531;BME280;45349;48.692;8.186;2023-02-28T01:32:32;99283.94;;;-2.32;62.79
59531;BME280;45349;48.692;8.186;2023-02-28T01:34:59;99291.72;;;-2.35;63.56
59531;BME280;45349;48.692;8.186;2023-02-28T01:37:25;99290.00;;;-2.35;63.54
59531;BME280;45349;48.692;8.186;2023-02-28T01:39:53;99298.38;;;-2.30;62.52
59531;BME280;45349;48.692;8.186;2023-02-28T01:42:20;99291.78;;;-2.37;63.17
59531;BME280;45349;48.692;8.186;2023-02-28T01:45:04;99285.81;;;-2.38;65.14
59531;BME280;45349;48.692;8.186;2023-02-28T01:47:36;99294.91;;;-2.29;62.86
59531;BME280;45349;48.692;8.186;2023-02-28T01:50:07;99290.06;;;-2.37;63.56
59531;BME280;45349;48.692;8.186;2023-02-28T01:52:35;99292.00;;;-2.43;64.48
59531;BME280;45349;48.692;8.186;2023-02-28T01:55:06;99294.25;;;-2.34;63.73
59531;BME280;45349;48.692;8.186;2023-02-28T01:57:37;99298.09;;;-2.22;64.14
59531;BME280;45349;48.692;8.186;2023-02-28T02:00:08;99299.03;;;-2.25;63.61
59531;BME280;45349;48.692;8.186;2023-02-28T02:02:47;99292.47;;;-2.32;64.04
59531;BME280;45349;48.692;8.186;2023-02-28T02:05:16;99291.94;;;-2.42;65.27
59531;BME280;45349;48.692;8.186;2023-02-28T02:07:45;99291.03;;;-2.41;65.38
59531;BME280;45349;48.692;8.186;2023-02-28T02:10:16;99289.13;;;-2.34;64.62
59531;BME280;45349;48.692;8.186;2023-02-28T02:13:01;99290.31;;;-2.44;65.07
59531;BME280;45349;48.692;8.186;2023-02-28T02:15:34;99289.66;;;-2.49;65.21
59531;BME280;45349;48.692;8.186;2023-02-28T02:18:09;99291.81;;;-2.64;66.68
59531;BME280;45349;48.692;8.186;2023-02-28T02:21:00;99299.50;;;-2.64;67.03
59531;BME280;45349;48.692;8.186;2023-02-28T02:26:51;99280.75;;;-2.64;66.84
59531;BME280;45349;48.692;8.186;2023-02-28T02:29:36;99280.22;;;-2.74;67.77
59531;BME280;45349;48.692;8.186;2023-02-28T02:32:45;99276.75;;;-2.72;67.79
59531;BME280;45349;48.692;8.186;2023-02-28T02:35:19;99282.06;;;-2.78;67.83
59531;BME280;45349;48.692;8.186;2023-02-28T02:37:52;99284.31;;;-2.69;68.60
59531;BME280;45349;48.692;8.186;2023-02-28T02:40:27;99282.22;;;-2.57;67.39
59531;BME280;45349;48.692;8.186;2023-02-28T02:43:01;99276.28;;;-2.58;67.62
59531;BME280;45349;48.692;8.186;2023-02-28T02:45:33;99280.56;;;-2.58;68.57
59531;BME280;45349;48.692;8.186;2023-02-28T02:48:06;99278.88;;;-2.59;68.83
59531;BME280;45349;48.692;8.186;2023-02-28T02:50:38;99283.22;;;-2.61;68.71
59531;BME280;45349;48.692;8.186;2023-02-28T02:53:08;99282.38;;;-2.62;68.57
59531;BME280;45349;48.692;8.186;2023-02-28T02:55:39;99280.88;;;-2.68;69.21
59531;BME280;45349;48.692;8.186;2023-02-28T02:58:10;99285.16;;;-2.68;69.74
59531;BME280;45349;48.692;8.186;2023-02-28T03:00:44;99286.63;;;-2.61;69.68
59531;BME280;45349;48.692;8.186;2023-02-28T03:03:13;99276.22;;;-2.56;69.52
59531;BME280;45349;48.692;8.186;2023-02-28T03:05:46;99288.88;;;-2.52;69.82
59531;BME280;45349;48.692;8.186;2023-02-28T03:08:15;99283.66;;;-2.48;69.83
59531;BME280;45349;48.692;8.186;2023-02-28T03:10:43;99285.09;;;-2.41;68.97
59531;BME280;45349;48.692;8.186;2023-02-28T03:13:35;99286.13;;;-2.47;69.90
59531;BME280;45349;48.692;8.186;2023-02-28T03:19:21;99279.72;;;-2.59;70.71
59531;BME280;45349;48.692;8.186;2023-02-28T03:22:00;99274.00;;;-2.65;71.41
59531;BME280;45349;48.692;8.186;2023-02-28T03:24:33;99269.03;;;-2.70;71.90
59531;BME280;45349;48.692;8.186;2023-02-28T03:27:07;99275.19;;;-2.76;72.30
59531;BME280;45349;48.692;8.186;2023-02-28T03:29:37;99272.78;;;-2.80;73.36
59531;BME280;45349;48.692;8.186;2023-02-28T03:32:08;99274.25;;;-2.73;72.92
59531;BME280;45349;48.692;8.186;2023-02-28T03:34:42;99271.94;;;-2.81;73.54
59531;BME280;45349;48.692;8.186;2023-02-28T03:37:16;99272.66;;;-2.77;73.33
59531;BME280;45349;48.692;8.186;2023-02-28T03:39:47;99266.00;;;-2.82;73.49
59531;BME280;45349;48.692;8.186;2023-02-28T03:42:18;99272.97;;;-2.87;74.44
59531;BME280;45349;48.692;8.186;2023-02-28T03:44:48;99263.50;;;-2.83;74.29
59531;BME280;45349;48.692;8.186;2023-02-28T03:47:21;99269.72;;;-2.92;75.04
59531;BME280;45349;48.692;8.186;2023-02-28T03:49:52;99263.09;;;-2.98;75.14
59531;BME280;45349;48.692;8.186;2023-02-28T03:52:23;99258.13;;;-3.02;75.85
59531;BME280;45349;48.692;8.186;2023-02-28T03:54:54;99255.19;;;-2.90;75.63
59531;BME280;45349;48.692;8.186;2023-02-28T03:57:27;99267.75;;;-2.84;75.07
59531;BME280;45349;48.692;8.186;2023-02-28T03:59:59;99256.72;;;-2.84;75.10
59531;BME280;45349;48.692;8.186;2023-02-28T04:02:38;99260.16;;;-2.85;76.02
59531;BME280;45349;48.692;8.186;2023-02-28T04:05:05;99264.78;;;-2.97;75.95
59531;BME280;45349;48.692;8.186;2023-02-28T04:07:33;99269.97;;;-3.00;76.37
59531;BME280;45349;48.692;8.186;2023-02-28T04:10:00;99266.69;;;-3.03;76.69
59531;BME280;45349;48.692;8.186;2023-02-28T04:12:26;99261.81;;;-3.11;77.59
59531;BME280;45349;48.692;8.186;2023-02-28T04:14:53;99270.31;;;-3.11;77.30
59531;BME280;45349;48.692;8.186;2023-02-28T04:17:19;99268.88;;;-3.19;77.81
59531;BME280;45349;48.692;8.186;2023-02-28T04:19:46;99265.66;;;-3.24;78.79
59531;BME280;45349;48.692;8.186;2023-02-28T04:22:13;99266.53;;;-3.26;78.36
59531;BME280;45349;48.692;8.186;2023-02-28T04:24:41;99266.72;;;-3.32;78.99
59531;BME280;45349;48.692;8.186;2023-02-28T04:27:08;99267.59;;;-3.33;79.54
59531;BME280;45349;48.692;8.186;2023-02-28T04:29:35;99273.66;;;-3.35;80.37
59531;BME280;45349;48.692;8.186;2023-02-28T04:32:03;99269.41;;;-3.36;80.04
59531;BME280;45349;48.692;8.186;2023-02-28T04:34:30;99267.56;;;-3.31;80.49
59531;BME280;45349;48.692;8.186;2023-02-28T04:36:57;99265.50;;;-3.20;79.84
59531;BME280;45349;48.692;8.186;2023-02-28T04:39:25;99266.28;;;-3.18;79.51
59531;BME280;45349;48.692;8.186;2023-02-28T04:41:53;99261.69;;;-3.35;79.97
59531;BME280;45349;48.692;8.186;2023-02-28T04:44:20;99259.31;;;-3.39;81.30
59531;BME280;45349;48.692;8.186;2023-02-28T04:46:47;99261.97;;;-3.44;81.41
59531;BME280;45349;48.692;8.186;2023-02-28T04:49:15;99265.22;;;-3.39;81.32
59531;BME280;45349;48.692;8.186;2023-02-28T04:51:42;99267.56;;;-3.31;81.11
59531;BME280;45349;48.692;8.186;2023-02-28T04:54:08;99263.97;;;-3.26;80.91
59531;BME280;45349;48.692;8.186;2023-02-28T04:56:35;99266.19;;;-3.42;81.36
59531;BME280;45349;48.692;8.186;2023-02-28T04:59:03;99273.34;;;-3.54;82.54
59531;BME280;45349;48.692;8.186;2023-02-28T05:01:31;99278.31;;;-3.50;82.82
59531;BME280;45349;48.692;8.186;2023-02-28T05:03:59;99276.88;;;-3.59;82.92
59531;BME280;45349;48.692;8.186;2023-02-28T05:06:28;99278.16;;;-3.44;82.72
59531;BME280;45349;48.692;8.186;2023-02-28T05:08:56;99275.00;;;-3.52;83.08
59531;BME280;45349;48.692;8.186;2023-02-28T05:11:24;99275.53;;;-3.42;82.85
59531;BME280;45349;48.692;8.186;2023-02-28T05:13:52;99274.56;;;-3.38;82.59
59531;BME280;45349;48.692;8.186;2023-02-28T05:16:20;99271.38;;;-3.45;83.35
59531;BME280;45349;48.692;8.186;2023-02-28T05:18:47;99276.75;;;-3.54;83.57
59531;BME280;45349;48.692;8.186;2023-02-28T05:21:26;99274.22;;;-3.56;83.47
59531;BME280;45349;48.692;8.186;2023-02-28T05:23:53;99270.88;;;-3.58;84.35
59531;BME280;45349;48.692;8.186;2023-02-28T05:26:20;99273.13;;;-3.47;84.29
59531;BME280;45349;48.692;8.186;2023-02-28T05:28:47;99267.41;;;-3.27;82.86
59531;BME280;45349;48.692;8.186;2023-02-28T05:31:14;99267.22;;;-3.20;82.28
59531;BME280;45349;48.692;8.186;2023-02-28T05:33:42;99270.47;;;-3.15;82.45
59531;BME280;45349;48.692;8.186;2023-02-28T05:36:08;99279.00;;;-3.16;81.90
59531;BME280;45349;48.692;8.186;2023-02-28T05:38:35;99271.38;;;-3.18;82.49
59531;BME280;45349;48.692;8.186;2023-02-28T05:41:05;99272.47;;;-3.25;82.42
59531;BME280;45349;48.692;8.186;2023-02-28T05:43:32;99267.31;;;-3.23;82.88
59531;BME280;45349;48.692;8.186;2023-02-28T05:45:58;99271.28;;;-3.15;82.45
59531;BME280;45349;48.692;8.186;2023-02-28T05:48:25;99274.63;;;-3.13;82.78
59531;BME280;45349;48.692;8.186;2023-02-28T05:50:53;99273.94;;;-3.18;82.70
59531;BME280;45349;48.692;8.186;2023-02-28T05:53:21;99261.94;;;-3.16;83.33
59531;BME280;45349;48.692;8.186;2023-02-28T05:55:47;99269.63;;;-3.16;83.50
59531;BME280;45349;48.692;8.186;2023-02-28T05:58:14;99269.75;;;-3.19;84.16
59531;BME280;45349;48.692;8.186;2023-02-28T06:00:40;99266.16;;;-3.13;83.62
59531;BME280;45349;48.692;8.186;2023-02-28T06:03:07;99269.38;;;-3.08;83.94
59531;BME280;45349;48.692;8.186;2023-02-28T06:05:34;99266.88;;;-3.09;84.48
59531;BME280;45349;48.692;8.186;2023-02-28T06:08:02;99271.88;;;-3.06;84.28
59531;BME280;45349;48.692;8.186;2023-02-28T06:10:28;99281.19;;;-3.04;84.88
59531;BME280;45349;48.692;8.186;2023-02-28T06:12:55;99282.09;;;-3.06;85.32
59531;BME280;45349;48.692;8.186;2023-02-28T06:15:21;99276.75;;;-2.99;85.67
59531;BME280;45349;48.692;8.186;2023-02-28T06:17:48;99286.88;;;-2.95;85.50
59531;BME280;45349;48.692;8.186;2023-02-28T06:20:15;99281.88;;;-2.99;86.10
59531;BME280;45349;48.692;8.186;2023-02-28T06:22:41;99287.06;;;-3.02;86.59
59531;BME280;45349;48.692;8.186;2023-02-28T06:25:10;99288.75;;;-3.01;87.03
59531;BME280;45349;48.692;8.186;2023-02-28T06:27:37;99298.56;;;-2.88;87.05
59531;BME280;45349;48.692;8.186;2023-02-28T06:30:04;99294.88;;;-2.79;86.77
59531;BME280;45349;48.692;8.186;2023-02-28T06:32:31;99301.56;;;-2.75;85.73
59531;BME280;45349;48.692;8.186;2023-02-28T06:34:57;99309.91;;;-2.70;85.97
59531;BME280;45349;48.692;8.186;2023-02-28T06:37:24;99302.72;;;-2.59;85.32
59531;BME280;45349;48.692;8.186;2023-02-28T06:39:52;99312.97;;;-2.59;85.50
59531;BME280;45349;48.692;8.186;2023-02-28T06:42:22;99306.56;;;-2.45;85.09
59531;BME280;45349;48.692;8.186;2023-02-28T06:44:50;99306.19;;;-2.34;85.32
59531;BME280;45349;48.692;8.186;2023-02-28T06:47:16;99302.59;;;-2.29;84.50
59531;BME280;45349;48.692;8.186;2023-02-28T06:49:43;99304.38;;;-2.31;84.31
59531;BME280;45349;48.692;8.186;2023-02-28T06:52:10;99308.31;;;-2.22;84.62
59531;BME280;45349;48.692;8.186;2023-02-28T06:54:37;99306.34;;;-2.14;83.42
59531;BME280;45349;48.692;8.186;2023-02-28T06:57:03;99313.72;;;-2.06;82.97
59531;BME280;45349;48.692;8.186;2023-02-28T06:59:31;99320.91;;;-2.16;83.26
59531;BME280;45349;48.692;8.186;2023-02-28T07:01:58;99318.69;;;-2.01;83.21
59531;BME280;45349;48.692;8.186;2023-02-28T07:04:25;99324.31;;;-1.91;82.07
59531;BME280;45349;48.692;8.186;2023-02-28T07:06:53;99316.38;;;-1.84;81.73
59531;BME280;45349;48.692;8.186;2023-02-28T07:09:21;99328.31;;;-1.84;82.01
59531;BME280;45349;48.692;8.186;2023-02-28T07:11:48;99324.63;;;-1.75;81.43
59531;BME280;45349;48.692;8.186;2023-02-28T07:14:14;99322.84;;;-1.73;81.19
59531;BME280;45349;48.692;8.186;2023-02-28T07:16:42;99325.69;;;-1.59;80.64
59531;BME280;45349;48.692;8.186;2023-02-28T07:19:10;99329.34;;;-1.65;80.22
59531;BME280;45349;48.692;8.186;2023-02-28T07:21:37;99330.47;;;-1.50;79.75
59531;BME280;45349;48.692;8.186;2023-02-28T07:24:04;99332.78;;;-1.66;80.02
59531;BME280;45349;48.692;8.186;2023-02-28T07:26:30;99333.56;;;-1.64;80.08
59531;BME280;45349;48.692;8.186;2023-02-28T07:28:59;99334.03;;;-1.54;80.17
59531;BME280;45349;48.692;8.186;2023-02-28T07:31:26;99334.78;;;-1.50;79.50
59531;BME280;45349;48.692;8.186;2023-02-28T07:33:53;99331.91;;;-1.65;79.86
59531;BME280;45349;48.692;8.186;2023-02-28T07:36:21;99323.00;;;-1.54;79.32
59531;BME280;45349;48.692;8.186;2023-02-28T07:38:48;99329.38;;;-1.42;79.35
59531;BME280;45349;48.692;8.186;2023-02-28T07:41:16;99329.25;;;-1.39;78.15
59531;BME280;45349;48.692;8.186;2023-02-28T07:43:42;99332.66;;;-1.39;78.75
59531;BME280;45349;48.692;8.186;2023-02-28T07:46:11;99330.69;;;-1.32;77.92
59531;BME280;45349;48.692;8.186;2023-02-28T07:48:40;99335.00;;;-1.32;77.78
59531;BME280;45349;48.692;8.186;2023-02-28T07:51:08;99331.44;;;-1.28;77.74
59531;BME280;45349;48.692;8.186;2023-02-28T07:53:35;99340.13;;;-1.32;77.82
59531;BME280;45349;48.692;8.186;2023-02-28T07:56:03;99344.81;;;-1.22;77.52
59531;BME280;45349;48.692;8.186;2023-02-28T07:58:30;99342.69;;;-1.32;77.70
59531;BME280;45349;48.692;8.186;2023-02-28T08:00:57;99344.25;;;-1.52;77.85
59531;BME280;45349;48.692;8.186;2023-02-28T08:03:30;99345.56;;;-1.42;77.74
59531;BME280;45349;48.692;8.186;2023-02-28T08:05:57;99346.13;;;-1.34;78.02
59531;BME280;45349;48.692;8.186;2023-02-28T08:08:25;99344.03;;;-1.24;76.82
59531;BME280;45349;48.692;8.186;2023-02-28T08:10:54;99346.69;;;-1.25;77.51
59531;BME280;45349;48.692;8.186;2023-02-28T08:13:21;99346.91;;;-1.09;77.32
59531;BME280;45349;48.692;8.186;2023-02-28T08:15:47;99355.63;;;-1.13;77.16
59531;BME280;45349;48.692;8.186;2023-02-28T08:18:14;99361.75;;;-0.95;76.36
59531;BME280;45349;48.692;8.186;2023-02-28T08:20:40;99360.84;;;-0.94;75.89
59531;BME280;45349;48.692;8.186;2023-02-28T08:23:07;99357.81;;;-1.04;75.45
59531;BME280;45349;48.692;8.186;2023-02-28T08:25:35;99352.53;;;-0.77;75.39
59531;BME280;45349;48.692;8.186;2023-02-28T08:28:02;99356.28;;;-0.64;74.46
59531;BME280;45349;48.692;8.186;2023-02-28T08:30:28;99351.66;;;-0.55;74.58
59531;BME280;45349;48.692;8.186;2023-02-28T08:32:55;99356.41;;;-0.46;73.28
59531;BME280;45349;48.692;8.186;2023-02-28T08:35:22;99354.16;;;-0.54;73.28
59531;BME280;45349;48.692;8.186;2023-02-28T08:37:49;99355.16;;;-0.58;73.18
59531;BME280;45349;48.692;8.186;2023-02-28T08:40:16;99349.47;;;-0.65;73.98
59531;BME280;45349;48.692;8.186;2023-02-28T08:42:44;99356.59;;;-0.51;73.61
59531;BME280;45349;48.692;8.186;2023-02-28T08:45:11;99356.72;;;-0.54;73.28
59531;BME280;45349;48.692;8.186;2023-02-28T08:47:38;99359.25;;;-0.75;74.86
59531;BME280;45349;48.692;8.186;2023-02-28T08:50:05;99356.59;;;-0.51;73.70
59531;BME280;45349;48.692;8.186;2023-02-28T08:52:32;99358.38;;;-0.53;73.01
59531;BME280;45349;48.692;8.186;2023-02-28T08:54:59;99356.72;;;-0.54;72.74
59531;BME280;45349;48.692;8.186;2023-02-28T08:57:25;99365.56;;;-0.61;73.10
59531;BME280;45349;48.692;8.186;2023-02-28T08:59:54;99368.53;;;-0.50;72.67
59531;BME280;45349;48.692;8.186;2023-02-28T09:02:20;99356.53;;;-0.49;72.40
59531;BME280;45349;48.692;8.186;2023-02-28T09:04:47;99358.31;;;-0.72;73.42
59531;BME280;45349;48.692;8.186;2023-02-28T09:07:13;99354.59;;;-0.65;73.30
59531;BME280;45349;48.692;8.186;2023-02-28T09:09:40;99358.84;;;-0.43;72.45
59531;BME280;45349;48.692;8.186;2023-02-28T09:12:19;99364.56;;;-0.36;72.81
59531;BME280;45349;48.692;8.186;2023-02-28T09:14:45;99362.00;;;-0.36;72.31
59531;BME280;45349;48.692;8.186;2023-02-28T09:17:16;99364.34;;;-0.52;72.67
59531;BME280;45349;48.692;8.186;2023-02-28T09:19:43;99367.28;;;-0.41;72.49
59531;BME280;45349;48.692;8.186;2023-02-28T09:22:10;99357.81;;;-0.39;72.08
59531;BME280;45349;48.692;8.186;2023-02-28T09:24:37;99366.59;;;-0.45;71.28
59531;BME280;45349;48.692;8.186;2023-02-28T09:27:04;99368.34;;;-0.24;71.03
59531;BME280;45349;48.692;8.186;2023-02-28T09:29:32;99361.50;;;-0.03;69.71
59531;BME280;45349;48.692;8.186;2023-02-28T09:31:59;99367.84;;;-0.12;69.82
59531;BME280;45349;48.692;8.186;2023-02-28T09:34:27;99362.56;;;-0.09;69.84
59531;BME280;45349;48.692;8.186;2023-02-28T09:36:56;99364.19;;;-0.06;69.35
59531;BME280;45349;48.692;8.186;2023-02-28T09:39:22;99375.66;;;0.06;70.31
59531;BME280;45349;48.692;8.186;2023-02-28T09:41:52;99377.69;;;0.18;69.51
59531;BME280;45349;48.692;8.186;2023-02-28T09:44:24;99371.41;;;0.44;68.79
59531;BME280;45349;48.692;8.186;2023-02-28T09:46:57;99380.03;;;0.43;68.32
59531;BME280;45349;48.692;8.186;2023-02-28T09:49:33;99387.56;;;0.27;66.69
59531;BME280;45349;48.692;8.186;2023-02-28T09:52:03;99381.78;;;0.43;67.81
59531;BME280;45349;48.692;8.186;2023-02-28T09:54:32;99381.69;;;0.64;67.70
59531;BME280;45349;48.692;8.186;2023-02-28T09:57:01;99386.84;;;0.83;65.63
59531;BME280;45349;48.692;8.186;2023-02-28T09:59:44;99392.00;;;0.83;73.01
59531;BME280;45349;48.692;8.186;2023-02-28T10:02:21;99386.78;;;0.65;67.44
59531;BME280;45349;48.692;8.186;2023-02-28T10:04:55;99391.16;;;0.82;65.55
59531;BME280;45349;48.692;8.186;2023-02-28T10:07:37;99390.66;;;0.93;63.88
59531;BME280;45349;48.692;8.186;2023-02-28T10:10:18;99395.66;;;0.96;63.61
59531;BME280;45349;48.692;8.186;2023-02-28T10:12:46;99392.38;;;0.93;63.16
59531;BME280;45349;48.692;8.186;2023-02-28T10:15:15;99381.91;;;0.78;64.36
59531;BME280;45349;48.692;8.186;2023-02-28T10:17:46;99399.47;;;0.49;63.53
59531;BME280;45349;48.692;8.186;2023-02-28T10:20:19;99389.88;;;0.72;63.00
59531;BME280;45349;48.692;8.186;2023-02-28T10:22:52;99397.19;;;0.81;62.92
59531;BME280;45349;48.692;8.186;2023-02-28T10:25:22;99393.59;;;1.05;62.52
59531;BME280;45349;48.692;8.186;2023-02-28T10:27:49;99397.25;;;0.99;62.01
59531;BME280;45349;48.692;8.186;2023-02-28T10:30:16;99401.75;;;1.13;62.77
59531;BME280;45349;48.692;8.186;2023-02-28T10:32:49;99406.94;;;1.30;61.08
59531;BME280;45349;48.692;8.186;2023-02-28T10:35:19;99404.84;;;1.39;61.68
59531;BME280;45349;48.692;8.186;2023-02-28T10:37:48;99415.88;;;1.41;61.80
59531;BME280;45349;48.692;8.186;2023-02-28T10:40:31;99414.63;;;1.50;60.46
59531;BME280;45349;48.692;8.186;2023-02-28T10:42:59;99415.94;;;1.22;61.66
59531;BME280;45349;48.692;8.186;2023-02-28T10:45:28;99407.41;;;1.39;60.84
59531;BME280;45349;48.692;8.186;2023-02-28T10:47:57;99409.78;;;1.61;60.60
59531;BME280;45349;48.692;8.186;2023-02-28T10:50:42;99404.69;;;1.42;59.80
59531;BME280;45349;48.692;8.186;2023-02-28T10:53:23;99412.97;;;1.66;59.89
59531;BME280;45349;48.692;8.186;2023-02-28T10:55:57;99411.25;;;1.84;59.52
59531;BME280;45349;48.692;8.186;2023-02-28T10:58:25;99411.16;;;1.86;59.80
59531;BME280;45349;48.692;8.186;2023-02-28T11:00:53;99413.97;;;1.81;59.79
59531;BME280;45349;48.692;8.186;2023-02-28T11:03:24;99421.09;;;1.94;61.48
59531;BME280;45349;48.692;8.186;2023-02-28T11:05:53;99419.78;;;2.02;58.70
59531;BME280;45349;48.692;8.186;2023-02-28T11:08:21;99411.75;;;1.91;58.93
59531;BME280;45349;48.692;8.186;2023-02-28T11:10:54;99413.03;;;1.47;59.52
59531;BME280;45349;48.692;8.186;2023-02-28T11:13:26;99413.72;;;1.51;60.60
59531;BME280;45349;48.692;8.186;2023-02-28T11:15:55;99413.94;;;1.64;60.00
59531;BME280;45349;48.692;8.186;2023-02-28T11:18:24;99415.31;;;1.53;60.44
59531;BME280;45349;48.692;8.186;2023-02-28T11:20:58;99405.47;;;1.61;60.90
59531;BME280;45349;48.692;8.186;2023-02-28T11:23:28;99413.66;;;1.87;59.54
59531;BME280;45349;48.692;8.186;2023-02-28T11:25:58;99410.47;;;1.82;60.79
59531;BME280;45349;48.692;8.186;2023-02-28T11:28:29;99412.41;;;2.12;58.70
59531;BME280;45349;48.692;8.186;2023-02-28T11:31:06;99409.69;;;2.15;58.62
59531;BME280;45349;48.692;8.186;2023-02-28T11:33:42;99410.09;;;2.41;56.86
59531;BME280;45349;48.692;8.186;2023-02-28T11:36:13;99408.97;;;1.96;58.15
59531;BME280;45349;48.692;8.186;2023-02-28T11:38:41;99400.66;;;1.90;58.74
59531;BME280;45349;48.692;8.186;2023-02-28T11:41:39;99407.03;;;2.17;58.93
59531;BME280;45349;48.692;8.186;2023-02-28T11:44:23;99406.06;;;2.53;57.87
59531;BME280;45349;48.692;8.186;2023-02-28T11:46:56;99407.81;;;2.69;57.75
59531;BME280;45349;48.692;8.186;2023-02-28T11:49:32;99413.31;;;2.62;56.00
59531;BME280;45349;48.692;8.186;2023-02-28T11:52:08;99404.13;;;1.89;58.48
59531;BME280;45349;48.692;8.186;2023-02-28T11:54:54;99410.84;;;2.43;59.22
59531;BME280;45349;48.692;8.186;2023-02-28T11:57:33;99402.38;;;2.91;57.57
59531;BME280;45349;48.692;8.186;2023-02-28T12:00:25;99403.84;;;3.11;56.49
59531;BME280;45349;48.692;8.186;2023-02-28T12:03:03;99410.97;;;3.54;53.57
59531;BME280;45349;48.692;8.186;2023-02-28T12:05:41;99407.16;;;3.45;54.21
59531;BME280;45349;48.692;8.186;2023-02-28T12:08:26;99398.44;;;3.32;53.79
59531;BME280;45349;48.692;8.186;2023-02-28T12:11:02;99400.41;;;3.43;53.82
59531;BME280;45349;48.692;8.186;2023-02-28T12:13:41;99392.75;;;3.41;53.51
59531;BME280;45349;48.692;8.186;2023-02-28T12:16:39;99388.34;;;3.27;54.73
59531;BME280;45349;48.692;8.186;2023-02-28T12:19:19;99404.88;;;3.08;54.80
59531;BME280;45349;48.692;8.186;2023-02-28T12:22:09;99386.22;;;3.19;54.77
59531;BME280;45349;48.692;8.186;2023-02-28T12:25:15;99394.53;;;3.24;54.12
59531;BME280;45349;48.692;8.186;2023-02-28T12:27:47;99384.03;;;3.28;54.30
59531;BME280;45349;48.692;8.186;2023-02-28T12:30:17;99379.63;;;3.30;55.01
59531;BME280;45349;48.692;8.186;2023-02-28T12:32:47;99386.28;;;3.64;54.07
59531;BME280;45349;48.692;8.186;2023-02-28T12:35:18;99377.19;;;3.88;53.88
59531;BME280;45349;48.692;8.186;2023-02-28T12:37:51;99385.47;;;3.78;52.44
59531;BME280;45349;48.692;8.186;2023-02-28T12:40:23;99371.56;;;3.04;54.32
59531;BME280;45349;48.692;8.186;2023-02-28T12:42:57;99368.31;;;3.16;55.32
59531;BME280;45349;48.692;8.186;2023-02-28T12:45:26;99368.97;;;3.36;54.58
59531;BME280;45349;48.692;8.186;2023-02-28T12:47:57;99371.88;;;3.30;55.50
59531;BME280;45349;48.692;8.186;2023-02-28T12:50:26;99363.16;;;3.47;55.14
59531;BME280;45349;48.692;8.186;2023-02-28T12:53:00;99354.03;;;3.41;53.83
59531;BME280;45349;48.692;8.186;2023-02-28T12:55:35;99353.78;;;2.99;54.39
59531;BME280;45349;48.692;8.186;2023-02-28T12:58:10;99353.44;;;2.73;54.62
59531;BME280;45349;48.692;8.186;2023-02-28T13:00:55;99354.13;;;2.93;54.78
59531;BME280;45349;48.692;8.186;2023-02-28T13:03:41;99359.03;;;2.82;54.98
59531;BME280;45349;48.692;8.186;2023-02-28T13:06:26;99358.34;;;2.94;55.98
59531;BME280;45349;48.692;8.186;2023-02-28T13:09:07;99348.94;;;3.09;55.50
59531;BME280;45349;48.692;8.186;2023-02-28T13:11:41;99352.03;;;3.00;54.44
59531;BME280;45349;48.692;8.186;2023-02-28T13:14:20;99347.28;;;2.76;55.06
59531;BME280;45349;48.692;8.186;2023-02-28T13:16:54;99333.16;;;2.67;55.72
59531;BME280;45349;48.692;8.186;2023-02-28T13:19:22;99336.22;;;2.42;55.53
59531;BME280;45349;48.692;8.186;2023-02-28T13:21:51;99340.31;;;2.62;55.36
59531;BME280;45349;48.692;8.186;2023-02-28T13:24:43;99347.78;;;2.50;55.24
59531;BME280;45349;48.692;8.186;2023-02-28T13:27:33;99341.13;;;2.46;55.00